createdAt,value
2022-10-20T00:00:50.778Z,99.48
2022-10-20T00:01:50.726Z,99.63
2022-10-20T00:02:50.818Z,99.52
2022-10-20T00:03:50.687Z,99.63
2022-10-20T00:04:50.695Z,99.52
2022-10-20T00:05:50.665Z,99.32
2022-10-20T00:06:50.686Z,99.63
2022-10-20T00:07:50.644Z,99.98
2022-10-20T00:08:50.675Z,99.93
2022-10-20T00:09:50.625Z,99.84
2022-10-20T00:10:50.630Z,99.73
2022-10-20T00:11:50.604Z,99.84
2022-10-20T00:12:50.647Z,99.88
2022-10-20T00:13:50.584Z,99.88
2022-10-20T00:14:50.580Z,99.88
2022-10-20T00:15:50.553Z,99.98
2022-10-20T00:16:50.544Z,99.98
2022-10-20T00:17:50.552Z,99.93
2022-10-20T00:18:50.558Z,99.99
2022-10-20T00:19:50.506Z,99.99
2022-10-20T00:20:50.503Z,99.99
2022-10-20T00:21:50.483Z,99.99
2022-10-20T00:22:50.483Z,99.99
2022-10-20T00:23:50.492Z,99.99
2022-10-20T00:24:50.460Z,99.99
2022-10-20T00:25:50.444Z,99.93
2022-10-20T00:26:50.434Z,99.78
2022-10-20T00:27:50.423Z,99.57
2022-10-20T00:28:50.406Z,99.72
2022-10-20T00:29:50.413Z,99.72
2022-10-20T00:30:50.389Z,99.62
2022-10-20T00:31:50.373Z,99.52
2022-10-20T00:32:50.365Z,99.31
2022-10-20T00:33:50.376Z,99.41
2022-10-20T00:34:50.373Z,99.31
2022-10-20T00:35:50.339Z,99.21
2022-10-20T00:36:51.413Z,99.31
2022-10-20T00:37:50.306Z,99.21
2022-10-20T00:38:50.303Z,99.21
2022-10-20T00:39:50.298Z,99.01
2022-10-20T00:40:50.317Z,99.01
2022-10-20T00:41:50.256Z,98.70
2022-10-20T00:42:50.271Z,98.49
2022-10-20T00:43:50.244Z,98.49
2022-10-20T00:44:50.723Z,98.60
2022-10-20T00:45:50.232Z,98.60
2022-10-20T00:46:50.479Z,98.60
2022-10-20T00:47:50.216Z,98.85
2022-10-20T00:48:50.190Z,98.90
2022-10-20T00:49:50.175Z,98.95
2022-10-20T00:50:50.165Z,98.74
2022-10-20T00:51:50.174Z,98.85
2022-10-20T00:52:50.142Z,98.85
2022-10-20T00:53:50.123Z,98.85
2022-10-20T00:54:50.122Z,98.74
2022-10-20T00:55:50.113Z,98.54
2022-10-20T00:56:50.161Z,98.33
2022-10-20T00:57:50.144Z,98.38
2022-10-20T00:58:50.110Z,98.99
2022-10-20T00:59:50.065Z,98.99
2022-10-20T01:00:50.056Z,99.30
2022-10-20T01:01:50.140Z,99.04
2022-10-20T01:02:50.034Z,98.94
2022-10-20T01:03:50.072Z,99.15
2022-10-20T01:04:50.002Z,99.09
2022-10-20T01:05:50.015Z,99.50
2022-10-20T01:06:50.001Z,99.80
2022-10-20T01:07:49.973Z,99.91
2022-10-20T01:08:50.008Z,99.99
2022-10-20T01:09:49.974Z,99.99
2022-10-20T01:10:49.946Z,99.99
2022-10-20T01:11:49.933Z,99.99
2022-10-20T01:12:49.912Z,99.99
2022-10-20T01:13:49.902Z,99.99
2022-10-20T01:14:49.893Z,99.99
2022-10-20T01:15:49.927Z,99.99
2022-10-20T01:16:49.872Z,99.99
2022-10-20T01:17:49.865Z,99.99
2022-10-20T01:18:49.857Z,99.99
2022-10-20T01:19:49.832Z,99.99
2022-10-20T01:20:49.841Z,99.99
2022-10-20T01:21:49.834Z,99.99
2022-10-20T01:22:49.817Z,99.99
2022-10-20T01:23:49.804Z,99.99
2022-10-20T01:24:49.792Z,99.99
2022-10-20T01:25:49.784Z,99.99
2022-10-20T01:26:49.796Z,99.99
2022-10-20T01:27:49.754Z,99.99
2022-10-20T01:28:49.741Z,99.99
2022-10-20T01:29:49.722Z,99.99
2022-10-20T01:30:49.724Z,99.99
2022-10-20T01:31:49.693Z,99.99
2022-10-20T01:32:49.731Z,99.99
2022-10-20T01:33:49.685Z,99.99
2022-10-20T01:34:52.180Z,99.99
2022-10-20T01:35:49.673Z,99.99
2022-10-20T01:36:49.650Z,99.99
2022-10-20T01:37:50.827Z,99.99
2022-10-20T01:38:49.658Z,99.99
2022-10-20T01:39:49.612Z,99.99
2022-10-20T01:40:49.605Z,99.99
2022-10-20T01:41:49.600Z,99.99
2022-10-20T01:42:49.581Z,99.99
2022-10-20T01:43:49.622Z,99.99
2022-10-20T01:44:49.561Z,99.99
2022-10-20T01:45:49.546Z,99.99
2022-10-20T01:46:49.542Z,99.99
2022-10-20T01:47:49.523Z,99.99
2022-10-20T01:48:49.517Z,99.99
2022-10-20T01:49:49.530Z,99.99
2022-10-20T01:50:49.506Z,99.99
2022-10-20T01:51:49.491Z,99.99
2022-10-20T01:52:49.473Z,99.99
2022-10-20T01:53:49.462Z,99.43
2022-10-20T01:54:49.441Z,99.74
2022-10-20T01:55:49.459Z,99.99
2022-10-20T01:56:49.421Z,99.99
2022-10-20T01:57:49.415Z,99.99
2022-10-20T01:58:49.401Z,99.99
2022-10-20T01:59:49.389Z,99.99
2022-10-20T02:00:49.417Z,99.99
2022-10-20T02:01:49.473Z,99.99
2022-10-20T02:02:49.354Z,99.99
2022-10-20T02:03:49.345Z,99.99
2022-10-20T02:04:49.333Z,99.99
2022-10-20T02:05:49.351Z,99.99
2022-10-20T02:06:49.323Z,99.99
2022-10-20T02:07:49.311Z,99.99
2022-10-20T02:08:49.356Z,99.99
2022-10-20T02:09:49.318Z,99.99
2022-10-20T02:10:49.269Z,99.99
2022-10-20T02:11:49.252Z,99.99
2022-10-20T02:12:49.261Z,99.99
2022-10-20T02:13:49.240Z,99.99
2022-10-20T02:14:49.221Z,99.99
2022-10-20T02:15:49.208Z,99.99
2022-10-20T02:16:49.201Z,99.99
2022-10-20T02:17:49.183Z,99.99
2022-10-20T02:18:49.346Z,99.99
2022-10-20T02:19:49.174Z,99.99
2022-10-20T02:20:49.169Z,99.99
2022-10-20T02:21:49.144Z,99.99
2022-10-20T02:22:49.131Z,99.99
2022-10-20T02:23:49.164Z,99.99
2022-10-20T02:24:49.130Z,99.99
2022-10-20T02:25:49.113Z,99.99
2022-10-20T02:26:49.100Z,99.99
2022-10-20T02:27:49.106Z,99.99
2022-10-20T02:28:49.069Z,99.99
2022-10-20T02:29:49.089Z,99.99
2022-10-20T02:30:49.051Z,99.99
2022-10-20T02:31:49.030Z,99.99
2022-10-20T02:32:49.029Z,99.99
2022-10-20T02:33:49.023Z,99.99
2022-10-20T02:34:49.000Z,99.99
2022-10-20T02:35:49.000Z,99.99
2022-10-20T02:36:48.980Z,99.99
2022-10-20T02:37:48.961Z,99.99
2022-10-20T02:38:48.952Z,99.99
2022-10-20T02:39:48.939Z,99.99
2022-10-20T02:40:48.950Z,99.99
2022-10-20T02:41:48.920Z,99.99
2022-10-20T02:42:48.912Z,99.99
2022-10-20T02:43:48.903Z,99.99
2022-10-20T02:44:48.891Z,99.99
2022-10-20T02:45:48.869Z,99.99
2022-10-20T02:46:48.943Z,99.99
2022-10-20T02:47:48.849Z,99.99
2022-10-20T02:48:48.840Z,99.99
2022-10-20T02:49:48.827Z,99.99
2022-10-20T02:50:48.822Z,99.99
2022-10-20T02:51:48.799Z,99.99
2022-10-20T02:52:48.818Z,99.99
2022-10-20T02:53:48.779Z,99.99
2022-10-20T02:54:48.771Z,99.99
2022-10-20T02:55:48.750Z,99.99
2022-10-20T02:56:48.749Z,99.99
2022-10-20T02:57:48.750Z,99.99
2022-10-20T02:58:48.727Z,99.99
2022-10-20T02:59:48.717Z,99.99
2022-10-20T03:00:48.710Z,99.99
2022-10-20T03:01:48.742Z,99.99
2022-10-20T03:02:48.678Z,99.99
2022-10-20T03:03:48.739Z,99.99
2022-10-20T03:04:48.660Z,99.99
2022-10-20T03:05:48.647Z,99.99
2022-10-20T03:06:48.639Z,99.99
2022-10-20T03:07:48.628Z,99.99
2022-10-20T03:08:48.649Z,99.99
2022-10-20T03:09:48.734Z,99.99
2022-10-20T03:10:48.592Z,99.72
2022-10-20T03:11:48.578Z,99.51
2022-10-20T03:12:48.579Z,99.41
2022-10-20T03:13:48.556Z,99.51
2022-10-20T03:14:48.547Z,99.62
2022-10-20T03:15:48.560Z,99.51
2022-10-20T03:16:48.522Z,99.31
2022-10-20T03:17:48.511Z,99.26
2022-10-20T03:18:48.502Z,99.67
2022-10-20T03:19:48.487Z,99.98
2022-10-20T03:20:48.499Z,99.99
2022-10-20T03:21:48.476Z,99.99
2022-10-20T03:22:48.450Z,99.99
2022-10-20T03:23:48.448Z,99.99
2022-10-20T03:24:48.429Z,99.99
2022-10-20T03:25:48.431Z,99.99
2022-10-20T03:26:48.422Z,99.99
2022-10-20T03:27:48.398Z,99.99
2022-10-20T03:28:48.382Z,99.99
2022-10-20T03:29:48.376Z,99.99
2022-10-20T03:30:48.357Z,99.99
2022-10-20T03:32:48.347Z,99.99
2022-10-20T03:33:48.332Z,99.99
2022-10-20T03:34:48.311Z,99.99
2022-10-20T03:35:48.312Z,99.99
2022-10-20T03:36:48.288Z,99.99
2022-10-20T03:37:48.300Z,99.87
2022-10-20T03:38:48.257Z,99.99
2022-10-20T03:39:48.248Z,99.99
2022-10-20T03:40:48.250Z,99.99
2022-10-20T03:41:48.238Z,99.99
2022-10-20T03:42:48.236Z,99.99
2022-10-20T03:43:48.227Z,99.99
2022-10-20T03:44:48.212Z,99.99
2022-10-20T03:45:48.187Z,99.99
2022-10-20T03:46:48.179Z,99.99
2022-10-20T03:47:48.169Z,99.97
2022-10-20T03:48:48.197Z,99.99
2022-10-20T03:49:48.146Z,99.99
2022-10-20T03:50:48.135Z,99.77
2022-10-20T03:51:48.115Z,99.99
2022-10-20T03:52:48.106Z,99.87
2022-10-20T03:53:48.088Z,99.77
2022-10-20T03:54:48.128Z,99.87
2022-10-20T03:55:48.078Z,99.99
2022-10-20T03:56:48.059Z,99.99
2022-10-20T03:57:48.046Z,99.99
2022-10-20T03:58:48.038Z,99.99
2022-10-20T03:59:48.026Z,99.99
2022-10-20T04:00:48.037Z,99.99
2022-10-20T04:01:48.054Z,99.99
2022-10-20T04:02:55.032Z,99.99
2022-10-20T04:03:47.979Z,99.99
2022-10-20T04:04:47.961Z,99.99
2022-10-20T04:05:47.960Z,99.99
2022-10-20T04:06:47.960Z,99.99
2022-10-20T04:07:47.931Z,99.99
2022-10-20T04:08:47.984Z,99.99
2022-10-20T04:09:47.907Z,99.99
2022-10-20T04:10:47.890Z,99.99
2022-10-20T04:11:47.880Z,99.99
2022-10-20T04:12:47.889Z,99.99
2022-10-20T04:13:47.860Z,99.99
2022-10-20T04:14:47.849Z,99.99
2022-10-20T04:15:47.839Z,99.99
2022-10-20T04:16:47.820Z,99.99
2022-10-20T04:17:47.810Z,99.99
2022-10-20T04:18:47.817Z,99.99
2022-10-20T04:19:47.790Z,99.99
2022-10-20T04:20:47.769Z,99.99
2022-10-20T04:21:47.769Z,99.99
2022-10-20T04:22:47.750Z,99.99
2022-10-20T04:23:47.769Z,99.99
2022-10-20T04:24:47.730Z,99.99
2022-10-20T04:25:47.727Z,99.99
2022-10-20T04:26:47.746Z,99.99
2022-10-20T04:27:47.699Z,99.56
2022-10-20T04:28:47.686Z,98.94
2022-10-20T04:29:47.699Z,98.63
2022-10-20T04:30:47.666Z,98.63
2022-10-20T04:31:49.177Z,98.69
2022-10-20T04:32:47.639Z,99.41
2022-10-20T04:33:47.630Z,99.93
2022-10-20T04:34:47.617Z,99.72
2022-10-20T04:35:47.702Z,99.93
2022-10-20T04:36:47.595Z,99.99
2022-10-20T04:37:47.579Z,99.99
2022-10-20T04:38:47.570Z,99.99
2022-10-20T04:39:47.560Z,99.99
2022-10-20T04:40:47.549Z,99.99
2022-10-20T04:41:47.569Z,99.99
2022-10-20T04:42:47.529Z,99.99
2022-10-20T04:43:47.519Z,99.99
2022-10-20T04:44:47.538Z,99.99
2022-10-20T04:45:47.496Z,99.99
2022-10-20T04:46:47.479Z,99.99
2022-10-20T04:47:47.488Z,99.99
2022-10-20T04:48:47.461Z,99.97
2022-10-20T04:49:47.451Z,99.56
2022-10-20T04:50:47.438Z,99.05
2022-10-20T04:51:47.427Z,99.25
2022-10-20T04:52:47.460Z,99.31
2022-10-20T04:53:47.408Z,99.41
2022-10-20T04:54:47.388Z,99.51
2022-10-20T04:55:47.379Z,99.31
2022-10-20T04:56:47.367Z,99.72
2022-10-20T04:57:47.368Z,99.51
2022-10-20T04:58:47.372Z,99.93
2022-10-20T04:59:47.340Z,99.99
2022-10-20T05:00:47.326Z,99.99
2022-10-20T05:01:47.342Z,99.99
2022-10-20T05:02:47.306Z,99.99
2022-10-20T05:03:47.289Z,99.99
2022-10-20T05:04:47.299Z,99.99
2022-10-20T05:05:47.267Z,99.99
2022-10-20T05:06:47.259Z,99.99
2022-10-20T05:07:47.248Z,99.99
2022-10-20T05:08:47.290Z,99.99
2022-10-20T05:09:47.257Z,99.93
2022-10-20T05:10:47.247Z,99.99
2022-10-20T05:11:47.205Z,99.82
2022-10-20T05:12:47.187Z,99.93
2022-10-20T05:13:47.178Z,99.99
2022-10-20T05:14:47.161Z,99.99
2022-10-20T05:15:47.158Z,99.99
2022-10-20T05:16:47.155Z,99.99
2022-10-20T05:17:47.128Z,99.99
2022-10-20T05:18:47.118Z,99.99
2022-10-20T05:19:47.107Z,99.99
2022-10-20T05:21:07.419Z,99.99
2022-10-20T05:21:48.110Z,99.99
2022-10-20T05:22:47.069Z,99.99
2022-10-20T05:23:47.070Z,99.99
2022-10-20T05:24:47.056Z,99.99
2022-10-20T05:25:47.038Z,99.99
2022-10-20T05:26:47.034Z,99.99
2022-10-20T05:27:47.037Z,99.99
2022-10-20T05:28:47.011Z,99.99
2022-10-20T05:29:47.008Z,99.99
2022-10-20T05:30:46.989Z,99.99
2022-10-20T05:31:46.978Z,99.99
2022-10-20T05:32:46.968Z,99.99
2022-10-20T05:33:46.968Z,99.99
2022-10-20T05:34:46.937Z,99.99
2022-10-20T05:35:46.937Z,99.99
2022-10-20T05:36:46.907Z,99.99
2022-10-20T05:37:46.897Z,99.99
2022-10-20T05:38:46.886Z,99.99
2022-10-20T05:40:46.865Z,99.99
2022-10-20T05:41:46.865Z,99.99
2022-10-20T05:42:46.844Z,99.99
2022-10-20T05:43:46.835Z,99.77
2022-10-20T05:44:46.817Z,99.62
2022-10-20T05:45:46.827Z,99.51
2022-10-20T05:46:46.795Z,99.82
2022-10-20T05:47:46.789Z,99.82
2022-10-20T05:48:46.780Z,99.99
2022-10-20T05:49:46.765Z,99.99
2022-10-20T05:50:46.748Z,99.99
2022-10-20T05:51:46.806Z,99.99
2022-10-20T05:52:46.726Z,99.99
2022-10-20T05:53:46.715Z,99.99
2022-10-20T05:54:46.705Z,99.99
2022-10-20T05:55:46.705Z,99.99
2022-10-20T05:56:46.677Z,99.99
2022-10-20T05:57:46.696Z,99.99
2022-10-20T05:58:46.656Z,99.99
2022-10-20T05:59:46.658Z,99.99
2022-10-20T06:00:46.664Z,99.99
2022-10-20T06:01:46.628Z,99.99
2022-10-20T06:02:46.626Z,99.99
2022-10-20T06:03:46.606Z,99.99
2022-10-20T06:04:46.585Z,99.99
2022-10-20T06:05:46.585Z,99.99
2022-10-20T06:06:46.566Z,99.99
2022-10-20T06:07:46.565Z,99.99
2022-10-20T06:08:46.603Z,99.99
2022-10-20T06:09:46.538Z,99.99
2022-10-20T06:10:46.518Z,99.99
2022-10-20T06:11:46.517Z,99.99
2022-10-20T06:12:46.494Z,99.99
2022-10-20T06:13:48.653Z,99.99
2022-10-20T06:14:47.477Z,99.99
2022-10-20T06:15:46.465Z,99.99
2022-10-20T06:16:46.454Z,99.99
2022-10-20T06:17:46.445Z,99.99
2022-10-20T06:18:46.430Z,99.99
2022-10-20T06:19:46.445Z,99.99
2022-10-20T06:20:46.410Z,99.99
2022-10-20T06:21:48.078Z,99.99
2022-10-20T06:22:46.386Z,99.99
2022-10-20T06:23:46.375Z,99.99
2022-10-20T06:24:46.364Z,99.99
2022-10-20T06:25:46.375Z,99.99
2022-10-20T06:26:46.342Z,99.99
2022-10-20T06:27:46.334Z,99.99
2022-10-20T06:28:46.313Z,99.99
2022-10-20T06:29:46.315Z,99.99
2022-10-20T06:30:46.295Z,99.99
2022-10-20T06:31:46.309Z,99.99
2022-10-20T06:32:46.275Z,99.99
2022-10-20T06:33:46.266Z,99.99
2022-10-20T06:34:46.246Z,99.99
2022-10-20T06:35:46.243Z,99.99
2022-10-20T06:36:46.226Z,99.99
2022-10-20T06:37:46.244Z,99.99
2022-10-20T06:38:46.214Z,99.99
2022-10-20T06:39:46.205Z,99.99
2022-10-20T06:40:46.184Z,99.99
2022-10-20T06:41:46.181Z,99.99
2022-10-20T06:42:46.196Z,99.99
2022-10-20T06:43:46.179Z,99.99
2022-10-20T06:44:46.140Z,99.99
2022-10-20T06:45:46.132Z,99.99
2022-10-20T06:46:46.118Z,99.99
2022-10-20T06:47:46.119Z,99.99
2022-10-20T06:48:46.094Z,99.99
2022-10-20T06:49:46.112Z,99.99
2022-10-20T06:50:46.074Z,99.99
2022-10-20T06:51:46.157Z,99.99
2022-10-20T06:52:46.054Z,99.99
2022-10-20T06:53:46.968Z,99.82
2022-10-20T06:54:46.053Z,99.93
2022-10-20T06:55:46.025Z,99.99
2022-10-20T06:56:46.011Z,99.93
2022-10-20T06:57:45.993Z,99.93
2022-10-20T06:58:45.981Z,99.98
2022-10-20T06:59:45.973Z,99.47
2022-10-20T07:00:45.974Z,99.57
2022-10-20T07:01:46.060Z,99.68
2022-10-20T07:02:45.933Z,99.47
2022-10-20T07:03:45.934Z,99.68
2022-10-20T07:04:45.914Z,99.27
2022-10-20T07:05:45.926Z,99.37
2022-10-20T07:06:45.891Z,99.27
2022-10-20T07:07:45.883Z,99.22
2022-10-20T07:08:45.943Z,99.16
2022-10-20T07:09:45.863Z,99.06
2022-10-20T07:10:45.848Z,99.37
2022-10-20T07:11:45.862Z,99.73
2022-10-20T07:12:45.826Z,99.43
2022-10-20T07:13:45.814Z,99.22
2022-10-20T07:14:45.802Z,99.22
2022-10-20T07:15:45.793Z,98.97
2022-10-20T07:16:45.774Z,98.77
2022-10-20T07:17:45.784Z,98.82
2022-10-20T07:18:45.768Z,98.82
2022-10-20T07:19:45.750Z,98.41
2022-10-20T07:20:45.733Z,98.21
2022-10-20T07:21:46.005Z,97.55
2022-10-20T07:22:45.734Z,97.08
2022-10-20T07:23:45.704Z,96.98
2022-10-20T07:24:45.694Z,97.08
2022-10-20T07:25:45.676Z,97.13
2022-10-20T07:26:45.665Z,97.29
2022-10-20T07:27:45.655Z,97.74
2022-10-20T07:28:45.663Z,97.64
2022-10-20T07:29:45.634Z,97.85
2022-10-20T07:30:45.623Z,97.90
2022-10-20T07:31:45.614Z,97.70
2022-10-20T07:32:45.605Z,97.86
2022-10-20T07:33:56.528Z,97.24
2022-10-20T07:34:46.576Z,97.04
2022-10-20T07:35:45.564Z,97.04
2022-10-20T07:36:45.553Z,96.63
2022-10-20T07:37:45.541Z,96.94
2022-10-20T07:38:45.538Z,97.00
2022-10-20T07:39:45.554Z,96.38
2022-10-20T07:40:45.514Z,95.41
2022-10-20T07:41:45.494Z,95.92
2022-10-20T07:42:45.485Z,96.43
2022-10-20T07:43:45.475Z,96.33
2022-10-20T07:44:45.463Z,96.43
2022-10-20T07:45:45.473Z,97.30
2022-10-20T07:46:45.451Z,96.48
2022-10-20T07:47:47.566Z,96.08
2022-10-20T07:48:45.422Z,96.79
2022-10-20T07:49:45.536Z,96.44
2022-10-20T07:50:45.402Z,95.68
2022-10-20T07:51:45.404Z,95.94
2022-10-20T07:52:45.375Z,94.72
2022-10-20T07:53:45.362Z,92.38
2022-10-20T07:54:45.355Z,94.37
2022-10-20T07:55:45.335Z,92.84
2022-10-20T07:56:45.326Z,92.40
2022-10-20T07:57:45.325Z,90.42
2022-10-20T07:58:45.305Z,89.15
2022-10-20T07:59:45.295Z,88.85
2022-10-20T08:00:45.295Z,85.46
2022-10-20T08:01:45.343Z,86.47
2022-10-20T08:02:45.286Z,85.72
2022-10-20T08:03:45.245Z,82.64
2022-10-20T08:04:45.234Z,81.86
2022-10-20T08:05:45.225Z,81.05
2022-10-20T08:06:45.226Z,83.89
2022-10-20T08:07:45.203Z,82.53
2022-10-20T08:08:45.235Z,81.62
2022-10-20T08:10:45.174Z,79.59
2022-10-20T08:11:45.162Z,81.56
2022-10-20T08:12:45.144Z,79.63
2022-10-20T08:13:45.135Z,80.98
2022-10-20T08:14:45.267Z,81.25
2022-10-20T08:15:47.482Z,81.41
2022-10-20T08:16:45.134Z,80.07
2022-10-20T08:17:45.096Z,81.09
2022-10-20T08:18:47.686Z,81.73
2022-10-20T08:19:47.448Z,82.81
2022-10-20T08:20:45.805Z,82.54
2022-10-20T08:21:45.045Z,83.26
2022-10-20T08:22:45.036Z,82.51
2022-10-20T08:23:45.028Z,81.90
2022-10-20T08:24:45.015Z,82.20
2022-10-20T08:25:45.005Z,83.15
2022-10-20T08:26:45.007Z,83.87
2022-10-20T08:27:45.045Z,83.36
2022-10-20T08:28:44.966Z,82.24
2022-10-20T08:29:50.889Z,81.98
2022-10-20T08:30:45.947Z,83.50
2022-10-20T08:31:44.957Z,84.52
2022-10-20T08:32:44.925Z,84.45
2022-10-20T08:33:48.819Z,85.68
2022-10-20T08:34:45.908Z,86.08
2022-10-20T08:35:44.886Z,84.86
2022-10-20T08:36:44.884Z,84.45
2022-10-20T08:37:44.878Z,85.27
2022-10-20T08:38:44.860Z,84.97
2022-10-20T08:39:44.846Z,86.13
2022-10-20T08:40:44.845Z,85.37
2022-10-20T08:42:06.837Z,86.49
2022-10-20T08:42:45.836Z,85.23
2022-10-20T08:43:44.806Z,84.82
2022-10-20T08:44:44.823Z,83.44
2022-10-20T08:45:44.797Z,84.56
2022-10-20T08:46:44.767Z,85.78
2022-10-20T08:47:44.756Z,85.82
2022-10-20T08:48:44.775Z,86.39
2022-10-20T08:49:44.737Z,86.39
2022-10-20T08:50:44.739Z,85.72
2022-10-20T08:51:44.715Z,86.39
2022-10-20T08:52:44.707Z,85.68
2022-10-20T08:53:44.687Z,85.37
2022-10-20T08:54:44.944Z,85.37
2022-10-20T08:55:44.690Z,86.22
2022-10-20T08:56:44.670Z,86.39
2022-10-20T08:57:44.648Z,86.90
2022-10-20T08:58:44.651Z,86.49
2022-10-20T08:59:44.619Z,86.59
2022-10-20T09:00:44.630Z,87.14
2022-10-20T09:01:44.674Z,87.65
2022-10-20T09:02:44.598Z,88.67
2022-10-20T09:03:44.576Z,88.57
2022-10-20T09:04:44.573Z,89.28
2022-10-20T09:05:45.306Z,88.63
2022-10-20T09:06:44.547Z,88.87
2022-10-20T09:07:44.537Z,89.48
2022-10-20T09:08:44.546Z,89.64
2022-10-20T09:09:44.508Z,89.44
2022-10-20T09:10:44.497Z,88.69
2022-10-20T09:11:44.560Z,87.57
2022-10-20T09:12:44.497Z,87.71
2022-10-20T09:13:44.500Z,88.08
2022-10-20T09:14:44.457Z,86.96
2022-10-20T09:15:44.449Z,86.86
2022-10-20T09:16:59.361Z,86.10
2022-10-20T09:17:45.440Z,85.90
2022-10-20T09:18:44.418Z,86.41
2022-10-20T09:19:44.397Z,85.39
2022-10-20T09:20:44.444Z,85.70
2022-10-20T09:21:44.381Z,86.00
2022-10-20T09:22:44.367Z,86.35
2022-10-20T09:23:44.425Z,86.10
2022-10-20T09:24:44.417Z,86.41
2022-10-20T09:25:44.341Z,86.16
2022-10-20T09:26:58.283Z,85.35
2022-10-20T09:27:45.411Z,83.97
2022-10-20T09:29:08.626Z,84.78
2022-10-20T09:29:45.288Z,85.60
2022-10-20T09:30:44.278Z,85.09
2022-10-20T09:31:44.260Z,84.64
2022-10-20T09:32:47.016Z,84.64
2022-10-20T09:33:44.251Z,85.19
2022-10-20T09:34:44.248Z,85.49
2022-10-20T09:35:44.223Z,85.39
2022-10-20T09:36:44.228Z,85.49
2022-10-20T09:37:44.197Z,85.39
2022-10-20T09:38:44.187Z,86.21
2022-10-20T09:39:44.185Z,86.82
2022-10-20T09:40:44.188Z,86.71
2022-10-20T09:41:44.160Z,87.06
2022-10-20T09:42:44.139Z,87.06
2022-10-20T09:43:44.128Z,87.16
2022-10-20T09:44:44.118Z,87.02
2022-10-20T09:45:44.109Z,87.02
2022-10-20T09:46:44.118Z,87.02
2022-10-20T09:47:44.087Z,86.61
2022-10-20T09:48:44.078Z,86.82
2022-10-20T09:49:44.060Z,86.92
2022-10-20T09:50:44.052Z,87.32
2022-10-20T09:51:44.078Z,87.73
2022-10-20T09:52:44.050Z,87.12
2022-10-20T09:53:44.009Z,87.18
2022-10-20T09:54:44.009Z,86.98
2022-10-20T09:55:44.017Z,85.52
2022-10-20T09:56:43.989Z,84.91
2022-10-20T09:57:44.052Z,85.41
2022-10-20T09:58:43.980Z,84.20
2022-10-20T09:59:43.949Z,85.46
2022-10-20T10:00:44.031Z,85.76
2022-10-20T10:01:43.931Z,85.96
2022-10-20T10:02:43.927Z,84.91
2022-10-20T10:03:51.024Z,84.91
2022-10-20T10:04:46.515Z,84.40
2022-10-20T10:05:43.884Z,84.30
2022-10-20T10:06:43.876Z,84.09
2022-10-20T10:07:43.864Z,83.99
2022-10-20T10:08:43.925Z,84.30
2022-10-20T10:09:43.875Z,84.40
2022-10-20T10:10:43.825Z,84.60
2022-10-20T10:11:43.815Z,83.54
2022-10-20T10:12:43.818Z,83.14
2022-10-20T10:13:43.794Z,82.59
2022-10-20T10:14:43.785Z,82.43
2022-10-20T10:15:43.787Z,82.43
2022-10-20T10:16:43.757Z,82.39
2022-10-20T10:17:43.745Z,82.33
2022-10-20T10:18:48.276Z,83.04
2022-10-20T10:19:44.725Z,83.34
2022-10-20T10:20:43.736Z,83.00
2022-10-20T10:21:43.695Z,81.95
2022-10-20T10:22:43.704Z,79.27
2022-10-20T10:23:43.675Z,79.51
2022-10-20T10:24:43.667Z,80.02
2022-10-20T10:25:43.655Z,80.12
2022-10-20T10:26:43.676Z,80.87
2022-10-20T10:27:43.634Z,81.18
2022-10-20T10:28:43.625Z,81.48
2022-10-20T10:29:43.611Z,80.22
2022-10-20T10:30:46.878Z,79.21
2022-10-20T10:31:44.605Z,79.92
2022-10-20T10:32:43.595Z,80.73
2022-10-20T10:33:43.569Z,79.31
2022-10-20T10:34:43.558Z,77.95
2022-10-20T10:35:43.586Z,78.50
2022-10-20T10:36:43.536Z,79.55
2022-10-20T10:37:43.536Z,81.11
2022-10-20T10:38:43.517Z,81.31
2022-10-20T10:39:43.496Z,82.33
2022-10-20T10:40:43.490Z,82.23
2022-10-20T10:41:43.466Z,82.94
2022-10-20T10:42:43.474Z,83.14
2022-10-20T10:43:46.241Z,84.40
2022-10-20T10:44:44.438Z,84.30
2022-10-20T10:45:43.437Z,84.50
2022-10-20T10:47:43.592Z,83.38
2022-10-20T10:48:43.399Z,83.79
2022-10-20T10:49:43.407Z,84.40
2022-10-20T10:50:43.367Z,83.89
2022-10-20T10:51:43.357Z,83.89
2022-10-20T10:52:43.348Z,84.80
2022-10-20T10:53:43.337Z,84.64
2022-10-20T10:54:43.367Z,85.31
2022-10-20T10:55:48.674Z,84.91
2022-10-20T10:56:44.307Z,83.95
2022-10-20T10:57:43.300Z,83.75
2022-10-20T10:58:43.292Z,83.14
2022-10-20T10:59:43.276Z,83.34
2022-10-20T11:00:43.644Z,82.90
2022-10-20T11:01:43.248Z,82.39
2022-10-20T11:02:43.238Z,82.73
2022-10-20T11:03:43.229Z,83.04
2022-10-20T11:04:43.218Z,83.45
2022-10-20T11:05:43.219Z,83.34
2022-10-20T11:06:43.218Z,84.70
2022-10-20T11:07:43.177Z,84.70
2022-10-20T11:08:43.207Z,84.60
2022-10-20T11:09:43.158Z,85.55
2022-10-20T11:10:43.148Z,85.41
2022-10-20T11:11:43.220Z,85.11
2022-10-20T11:12:43.148Z,85.41
2022-10-20T11:13:43.120Z,85.62
2022-10-20T11:14:43.109Z,84.26
2022-10-20T11:15:43.098Z,83.95
2022-10-20T11:16:43.079Z,83.85
2022-10-20T11:17:43.069Z,85.01
2022-10-20T11:18:43.079Z,84.87
2022-10-20T11:19:43.049Z,84.56
2022-10-20T11:20:43.039Z,84.80
2022-10-20T11:21:43.029Z,85.01
2022-10-20T11:22:43.016Z,86.07
2022-10-20T11:23:43.049Z,86.33
2022-10-20T11:24:42.998Z,86.22
2022-10-20T11:25:42.989Z,85.52
2022-10-20T11:26:42.978Z,85.72
2022-10-20T11:27:42.959Z,86.02
2022-10-20T11:28:42.950Z,86.08
2022-10-20T11:29:42.969Z,84.77
2022-10-20T11:30:42.928Z,84.77
2022-10-20T11:31:42.910Z,85.72
2022-10-20T11:32:42.911Z,86.43
2022-10-20T11:33:42.890Z,87.34
2022-10-20T11:34:42.900Z,87.04
2022-10-20T11:35:42.880Z,87.59
2022-10-20T11:36:42.849Z,87.75
2022-10-20T11:37:42.850Z,87.85
2022-10-20T11:38:42.829Z,88.20
2022-10-20T11:39:42.827Z,88.10
2022-10-20T11:40:42.830Z,87.99
2022-10-20T11:42:42.790Z,87.45
2022-10-20T11:43:42.779Z,87.24
2022-10-20T11:44:42.768Z,86.19
2022-10-20T11:45:42.793Z,85.38
2022-10-20T11:46:42.778Z,85.58
2022-10-20T11:47:42.740Z,85.47
2022-10-20T11:48:42.837Z,85.07
2022-10-20T11:49:42.709Z,84.42
2022-10-20T11:50:42.700Z,83.71
2022-10-20T11:51:42.690Z,84.12
2022-10-20T11:52:42.701Z,85.07
2022-10-20T11:53:42.672Z,85.68
2022-10-20T11:54:42.659Z,85.58
2022-10-20T11:55:42.708Z,85.98
2022-10-20T11:56:42.631Z,85.53
2022-10-20T11:57:42.648Z,85.44
2022-10-20T11:58:42.611Z,84.52
2022-10-20T11:59:42.601Z,84.72
2022-10-20T12:00:42.590Z,85.33
2022-10-20T12:01:42.629Z,85.33
2022-10-20T12:02:42.573Z,84.42
2022-10-20T12:03:42.582Z,84.42
2022-10-20T12:04:42.550Z,84.12
2022-10-20T12:05:42.550Z,84.22
2022-10-20T12:06:42.521Z,83.98
2022-10-20T12:07:42.513Z,83.98
2022-10-20T12:08:42.511Z,83.47
2022-10-20T12:09:42.501Z,83.26
2022-10-20T12:10:42.471Z,83.47
2022-10-20T12:11:42.469Z,83.17
2022-10-20T12:12:42.451Z,83.20
2022-10-20T12:13:42.442Z,83.61
2022-10-20T12:14:42.451Z,83.31
2022-10-20T12:15:42.441Z,84.12
2022-10-20T12:16:42.409Z,84.63
2022-10-20T12:17:42.405Z,85.53
2022-10-20T12:18:42.391Z,84.52
2022-10-20T12:19:42.383Z,83.87
2022-10-20T12:20:42.500Z,82.96
2022-10-20T12:21:42.352Z,83.81
2022-10-20T12:22:42.343Z,84.38
2022-10-20T12:23:42.331Z,84.12
2022-10-20T12:24:42.311Z,84.08
2022-10-20T12:25:42.329Z,83.67
2022-10-20T12:26:44.614Z,83.67
2022-10-20T12:27:42.291Z,82.96
2022-10-20T12:28:42.306Z,83.37
2022-10-20T12:29:42.273Z,83.17
2022-10-20T12:30:42.253Z,83.77
2022-10-20T12:31:42.242Z,83.57
2022-10-20T12:32:42.251Z,83.87
2022-10-20T12:33:42.222Z,83.67
2022-10-20T12:34:42.215Z,83.67
2022-10-20T12:35:42.213Z,83.17
2022-10-20T12:36:42.184Z,83.71
2022-10-20T12:37:44.816Z,84.32
2022-10-20T12:38:42.192Z,85.44
2022-10-20T12:39:42.152Z,86.55
2022-10-20T12:40:42.142Z,87.06
2022-10-20T12:41:42.133Z,86.86
2022-10-20T12:42:42.119Z,87.02
2022-10-20T12:43:42.112Z,86.47
2022-10-20T12:44:42.112Z,86.00
2022-10-20T12:45:42.104Z,87.37
2022-10-20T12:46:42.085Z,88.54
2022-10-20T12:47:42.063Z,88.48
2022-10-20T12:48:42.053Z,89.50
2022-10-20T12:49:42.044Z,90.26
2022-10-20T12:50:42.044Z,89.45
2022-10-20T12:51:42.031Z,89.31
2022-10-20T12:52:42.003Z,89.81
2022-10-20T12:53:41.993Z,87.59
2022-10-20T12:54:44.992Z,88.13
2022-10-20T12:55:43.011Z,88.75
2022-10-20T12:56:41.961Z,90.51
2022-10-20T12:57:41.956Z,91.32